Time;durP1;ratioP1;P1;durP2;ratioP2;P2;SDS_P1;SDS_P2;PMS_P1;PMS_P2;Temp;Humidity;BMP_temperature;BMP_pressure;BME280_temperature;BME280_humidity;BME280_pressure;Samples;Min_cycle;Max_cycle;Signal;HPM_P1;HPM_P2
2023/01/12 00:01:04;;;;;;;;;;;;;;;3.65;100.00;96888.56;5077265;28;19964;-70
2023/01/12 00:03:30;;;;;;;;;;;;;;;3.66;100.00;96889.38;5077195;28;19955;-70
2023/01/12 00:05:57;;;;;;;;;;;;;;;3.66;100.00;96895.38;5076919;28;19963;-70
2023/01/12 00:08:23;;;;;;;;;;;;;;;3.67;100.00;96893.56;5076284;28;19948;-70
2023/01/12 00:10:53;;;;;;;;;;;;;;;3.68;100.00;96891.81;5076800;28;19959;-71
2023/01/12 00:13:19;;;;;;;;;;;;;;;3.69;100.00;96880.44;5077190;28;19959;-70
2023/01/12 00:18:30;;;;;;;;;;;;;;;3.70;100.00;96885.47;5076355;28;19984;-70
2023/01/12 00:20:56;;;;;;;;;;;;;;;3.70;100.00;96876.91;5076446;28;19952;-70
2023/01/12 00:23:24;;;;;;;;;;;;;;;3.70;100.00;96876.91;5076492;28;20470;-71
2023/01/12 00:25:51;;;;;;;;;;;;;;;3.69;100.00;96880.44;5076691;28;19961;-70
2023/01/12 00:28:17;;;;;;;;;;;;;;;3.72;100.00;96882.72;5076442;28;19946;-70
2023/01/12 00:30:43;;;;;;;;;;;;;;;3.72;100.00;96882.72;5076306;28;19954;-70
2023/01/12 00:33:09;;;;;;;;;;;;;;;3.73;100.00;96886.94;5076408;28;20337;-70
2023/01/12 00:35:35;;;;;;;;;;;;;;;3.76;100.00;96884.00;5075944;28;19943;-70
2023/01/12 00:38:02;;;;;;;;;;;;;;;3.78;100.00;96884.63;5076438;28;19951;-70
2023/01/12 00:40:28;;;;;;;;;;;;;;;3.81;100.00;96881.75;5076529;28;19979;-70
2023/01/12 00:45:38;;;;;;;;;;;;;;;3.88;100.00;96881.88;5076781;28;20464;-70
2023/01/12 00:48:04;;;;;;;;;;;;;;;3.91;100.00;96873.78;5076293;28;19955;-70
2023/01/12 00:50:30;;;;;;;;;;;;;;;3.93;100.00;96871.84;5076263;28;19953;-70
2023/01/12 00:52:56;;;;;;;;;;;;;;;3.96;100.00;96858.53;5076189;28;19951;-70
2023/01/12 00:55:21;;;;;;;;;;;;;;;3.98;100.00;96865.16;5076186;28;20410;-70
2023/01/12 00:57:47;;;;;;;;;;;;;;;4.02;100.00;96853.47;5075489;28;20292;-70
2023/01/12 01:00:14;;;;;;;;;;;;;;;4.04;100.00;96848.91;5076044;28;19985;-70
2023/01/12 01:02:40;;;;;;;;;;;;;;;4.06;100.00;96846.16;5075843;28;19961;-70
2023/01/12 01:05:06;;;;;;;;;;;;;;;4.09;100.00;96839.81;5075753;28;19955;-70
2023/01/12 01:07:31;;;;;;;;;;;;;;;4.12;100.00;96842.91;5075714;28;20014;-71
2023/01/12 01:09:57;;;;;;;;;;;;;;;4.17;100.00;96855.38;5076159;28;19956;-70
2023/01/12 01:12:23;;;;;;;;;;;;;;;4.19;100.00;96851.63;5075545;28;20328;-70
2023/01/12 01:14:49;;;;;;;;;;;;;;;4.24;100.00;96848.53;5075785;28;19956;-70
2023/01/12 01:17:15;;;;;;;;;;;;;;;4.27;100.00;96840.41;5075761;28;20432;-70
2023/01/12 01:19:42;;;;;;;;;;;;;;;4.31;100.00;96852.09;5075799;28;19951;-70
2023/01/12 01:22:08;;;;;;;;;;;;;;;4.34;100.00;96843.94;5075464;28;19950;-70
2023/01/12 01:24:34;;;;;;;;;;;;;;;4.38;100.00;96839.25;5075635;28;19960;-70
2023/01/12 01:27:00;;;;;;;;;;;;;;;4.42;100.00;96841.31;5075250;28;20040;-70
2023/01/12 01:29:25;;;;;;;;;;;;;;;4.46;100.00;96850.41;5075512;28;19947;-70
2023/01/12 01:31:53;;;;;;;;;;;;;;;4.47;100.00;96848.59;5075249;28;19990;-70
2023/01/12 01:34:19;;;;;;;;;;;;;;;4.47;100.00;96848.59;5075348;28;19944;-70
2023/01/12 01:36:45;;;;;;;;;;;;;;;4.49;100.00;96844.03;5075743;28;20004;-70
2023/01/12 01:39:11;;;;;;;;;;;;;;;4.50;100.00;96860.47;5075315;28;19977;-70
2023/01/12 01:41:36;;;;;;;;;;;;;;;4.49;100.00;96851.84;5074823;28;19967;-70
2023/01/12 01:44:04;;;;;;;;;;;;;;;4.50;100.00;96856.06;5075087;28;19967;-70
2023/01/12 01:46:46;;;;;;;;;;;;;;;4.50;100.00;96852.66;5075016;28;19961;-70
2023/01/12 01:49:25;;;;;;;;;;;;;;;4.49;100.00;96857.03;5063734;28;19946;-70
2023/01/12 01:51:53;;;;;;;;;;;;;;;4.50;100.00;96861.25;5074933;28;19945;-70
2023/01/12 01:54:19;;;;;;;;;;;;;;;4.51;100.00;96870.66;5074893;28;19950;-70
2023/01/12 01:56:45;;;;;;;;;;;;;;;4.52;100.00;96859.31;5074833;28;19945;-70
2023/01/12 01:59:18;;;;;;;;;;;;;;;4.53;100.00;96871.31;5073492;28;19956;-70
2023/01/12 02:01:43;;;;;;;;;;;;;;;4.54;100.00;96872.13;5074750;28;19943;-70
2023/01/12 02:04:09;;;;;;;;;;;;;;;4.56;100.00;96867.56;5074797;28;19974;-70
2023/01/12 02:06:35;;;;;;;;;;;;;;;4.57;100.00;96872.59;5074616;28;19958;-70
2023/01/12 02:09:15;;;;;;;;;;;;;;;4.58;100.00;96863.81;5073703;28;20033;-70
2023/01/12 02:17:17;;;;;;;;;;;;;;;4.61;100.00;96855.69;5057199;28;19955;-69
2023/01/12 02:20:01;;;;;;;;;;;;;;;4.62;100.00;96848.69;5074243;28;19959;-69
2023/01/12 02:22:30;;;;;;;;;;;;;;;4.63;100.00;96845.94;5074313;28;19959;-69
2023/01/12 02:25:02;;;;;;;;;;;;;;;4.63;100.00;96843.34;5074309;28;19967;-70
2023/01/12 02:27:47;;;;;;;;;;;;;;;4.63;100.00;96840.72;5073988;28;20417;-70
2023/01/12 02:30:31;;;;;;;;;;;;;;;4.62;100.00;96836.53;5074017;28;19948;-70
2023/01/12 02:33:13;;;;;;;;;;;;;;;4.63;100.00;96829.53;5074365;28;19957;-70
2023/01/12 02:35:56;;;;;;;;;;;;;;;4.63;100.00;96814.75;5073006;28;19951;-70
2023/01/12 02:38:25;;;;;;;;;;;;;;;4.64;100.00;96811.19;5074266;28;19946;-70
2023/01/12 02:41:01;;;;;;;;;;;;;;;4.64;100.00;96800.81;5074289;28;19977;-70
2023/01/12 02:43:28;;;;;;;;;;;;;;;4.66;100.00;96798.84;5073831;28;19956;-70
2023/01/12 02:46:03;;;;;;;;;;;;;;;4.65;100.00;96786.81;5074245;28;19966;-70
2023/01/12 02:48:52;;;;;;;;;;;;;;;4.67;100.00;96789.25;5064890;28;19946;-70
2023/01/12 02:51:27;;;;;;;;;;;;;;;4.67;100.00;96795.25;5074247;28;19952;-70
2023/01/12 02:54:13;;;;;;;;;;;;;;;4.68;100.00;96804.69;5074256;28;19952;-70
2023/01/12 02:56:40;;;;;;;;;;;;;;;4.67;100.00;96800.44;5058852;28;19945;-70
2023/01/12 02:59:09;;;;;;;;;;;;;;;4.67;100.00;96791.84;5073854;28;19950;-70
2023/01/12 03:01:36;;;;;;;;;;;;;;;4.67;100.00;96800.44;5074337;28;19960;-70
2023/01/12 03:04:04;;;;;;;;;;;;;;;4.67;100.00;96802.25;5073618;28;19952;-70
2023/01/12 03:06:40;;;;;;;;;;;;;;;4.67;100.00;96789.25;5073405;28;19974;-70
2023/01/12 03:09:06;;;;;;;;;;;;;;;4.66;100.00;96778.06;5073546;28;19951;-70
2023/01/12 03:11:33;;;;;;;;;;;;;;;4.63;100.00;96788.78;5072972;28;19959;-70
2023/01/12 03:14:01;;;;;;;;;;;;;;;4.63;100.00;96783.59;5073453;28;19967;-70
2023/01/12 03:16:29;;;;;;;;;;;;;;;4.62;100.00;96789.78;5073644;28;19959;-70
2023/01/12 03:19:00;;;;;;;;;;;;;;;4.62;100.00;96789.78;5073419;28;19951;-70
2023/01/12 03:21:33;;;;;;;;;;;;;;;4.61;100.00;96790.75;5073519;28;20407;-70
2023/01/12 03:24:09;;;;;;;;;;;;;;;4.60;100.00;96783.13;5073260;28;19949;-70
2023/01/12 03:26:36;;;;;;;;;;;;;;;4.61;100.00;96769.97;5073409;28;19962;-70
2023/01/12 03:29:14;;;;;;;;;;;;;;;4.61;100.00;96764.75;5073356;28;19950;-70
2023/01/12 03:31:40;;;;;;;;;;;;;;;4.62;100.00;96769.00;5073575;28;19955;-70
2023/01/12 03:34:07;;;;;;;;;;;;;;;4.60;100.00;96789.13;5073269;28;19965;-71
2023/01/12 03:36:39;;;;;;;;;;;;;;;4.59;100.00;96774.53;5073629;28;19945;-70
2023/01/12 03:39:05;;;;;;;;;;;;;;;4.58;100.00;96769.53;5073545;28;19976;-70
2023/01/12 03:41:49;;;;;;;;;;;;;;;4.60;100.00;96770.97;5072095;28;19976;-70
2023/01/12 03:44:19;;;;;;;;;;;;;;;4.64;100.00;96781.78;5073245;28;19951;-70
2023/01/12 03:46:55;;;;;;;;;;;;;;;4.66;100.00;96778.06;5072994;28;19971;-70
2023/01/12 03:49:40;;;;;;;;;;;;;;;4.69;100.00;96776.91;5073167;28;20400;-70
2023/01/12 03:52:08;;;;;;;;;;;;;;;4.73;100.00;96774.78;5073459;28;19960;-70
2023/01/12 03:54:35;;;;;;;;;;;;;;;4.76;100.00;96787.41;5073313;28;19950;-70
2023/01/12 03:57:02;;;;;;;;;;;;;;;4.77;100.00;96782.03;5071990;28;19951;-71
2023/01/12 03:59:28;;;;;;;;;;;;;;;4.79;100.00;96780.09;5073331;28;19948;-70
2023/01/12 04:01:54;;;;;;;;;;;;;;;4.80;100.00;96773.09;5073489;28;19953;-70
2023/01/12 04:04:21;;;;;;;;;;;;;;;4.81;100.00;96779.94;5073035;28;20066;-70
2023/01/12 04:06:46;;;;;;;;;;;;;;;4.82;100.00;96777.13;5072969;28;19975;-70
2023/01/12 04:09:13;;;;;;;;;;;;;;;4.83;100.00;96780.53;5072531;28;19956;-71
2023/01/12 04:14:23;;;;;;;;;;;;;;;4.82;100.00;96784.13;5064299;28;19961;-70
2023/01/12 04:16:49;;;;;;;;;;;;;;;4.82;100.00;96779.72;5073005;28;19947;-70
2023/01/12 04:19:15;;;;;;;;;;;;;;;4.83;100.00;96773.56;5072911;28;19957;-70
2023/01/12 04:24:25;;;;;;;;;;;;;;;4.85;100.00;96773.38;5073234;28;20325;-70
2023/01/12 04:26:50;;;;;;;;;;;;;;;4.84;100.00;96764.78;5072705;28;19967;-70
2023/01/12 04:29:16;;;;;;;;;;;;;;;4.84;100.00;96763.97;5073087;28;20442;-70
2023/01/12 04:31:42;;;;;;;;;;;;;;;4.83;100.00;96763.16;5072944;28;20001;-71
2023/01/12 04:34:08;;;;;;;;;;;;;;;4.83;100.00;96763.16;5076260;28;20012;-70
2023/01/12 04:36:34;;;;;;;;;;;;;;;4.83;100.00;96757.97;5076458;28;19988;-70
2023/01/12 04:39:00;;;;;;;;;;;;;;;4.83;100.00;96755.38;5076239;28;20512;-71
2023/01/12 04:41:26;;;;;;;;;;;;;;;4.86;100.00;96749.81;5076429;28;20008;-70
2023/01/12 04:43:52;;;;;;;;;;;;;;;4.88;100.00;96760.03;5076270;28;20037;-70
2023/01/12 04:46:17;;;;;;;;;;;;;;;4.91;100.00;96748.50;5076019;28;20012;-70
2023/01/12 04:48:44;;;;;;;;;;;;;;;4.92;100.00;96753.53;5075603;28;19964;-70
2023/01/12 04:51:10;;;;;;;;;;;;;;;4.93;100.00;96749.94;5075935;28;19946;-70
2023/01/12 04:53:36;;;;;;;;;;;;;;;4.94;100.00;96732.56;5076238;28;20337;-70
2023/01/12 04:56:03;;;;;;;;;;;;;;;4.96;100.00;96728.00;5076144;28;19957;-70
2023/01/12 04:58:28;;;;;;;;;;;;;;;4.99;100.00;96735.44;5075834;28;19963;-70
2023/01/12 05:00:54;;;;;;;;;;;;;;;5.00;100.00;96717.06;5076018;28;19949;-70
2023/01/12 05:03:20;;;;;;;;;;;;;;;5.03;100.00;96714.09;5075991;28;20470;-70
2023/01/12 05:05:46;;;;;;;;;;;;;;;5.06;100.00;96728.53;5075879;28;20313;-70
2023/01/12 05:10:58;;;;;;;;;;;;;;;5.11;100.00;96734.03;5076369;28;19959;-70
2023/01/12 05:13:25;;;;;;;;;;;;;;;5.11;100.00;96734.03;5075563;28;19950;-70
2023/01/12 05:15:51;;;;;;;;;;;;;;;5.15;100.00;96737.09;5075616;28;19944;-70
2023/01/12 05:18:17;;;;;;;;;;;;;;;5.17;100.00;96737.72;5075520;28;19950;-70
2023/01/12 05:20:43;;;;;;;;;;;;;;;5.20;100.00;96739.97;5075659;28;19953;-70
2023/01/12 05:23:09;;;;;;;;;;;;;;;5.20;100.00;96735.56;5075401;28;19940;-70
2023/01/12 05:25:34;;;;;;;;;;;;;;;5.21;100.00;96726.78;5076089;28;20453;-70
2023/01/12 05:28:00;;;;;;;;;;;;;;;5.23;100.00;96718.81;5075194;28;20430;-70
2023/01/12 05:30:27;;;;;;;;;;;;;;;5.25;100.00;96728.06;5075433;28;19952;-70
2023/01/12 05:32:53;;;;;;;;;;;;;;;5.27;100.00;96728.69;5075272;28;19944;-70
2023/01/12 05:35:18;;;;;;;;;;;;;;;5.28;100.00;96716.50;5075179;28;19954;-70
2023/01/12 05:37:44;;;;;;;;;;;;;;;5.30;100.00;96722.31;5075388;28;20404;-70
2023/01/12 05:40:11;;;;;;;;;;;;;;;5.30;100.00;96722.31;5075229;28;20026;-70
2023/01/12 05:45:21;;;;;;;;;;;;;;;5.28;100.00;96727.69;5074353;28;19957;-71
2023/01/12 05:47:54;;;;;;;;;;;;;;;5.28;100.00;96738.09;5074363;28;19968;-70
2023/01/12 05:50:20;;;;;;;;;;;;;;;5.27;100.00;96720.88;5075557;28;19941;-70
2023/01/12 05:52:49;;;;;;;;;;;;;;;5.26;100.00;96721.06;5075059;28;19948;-71
2023/01/12 05:55:15;;;;;;;;;;;;;;;5.27;100.00;96718.28;5074957;28;19951;-70
2023/01/12 05:57:41;;;;;;;;;;;;;;;5.27;100.00;96712.25;5074738;28;19986;-70
2023/01/12 06:00:07;;;;;;;;;;;;;;;5.27;100.00;96710.50;5074645;28;19949;-70
2023/01/12 06:02:33;;;;;;;;;;;;;;;5.27;100.00;96710.50;5074024;28;19948;-70
2023/01/12 06:04:59;;;;;;;;;;;;;;;5.27;100.00;96712.25;5073511;28;19976;-70
2023/01/12 06:07:25;;;;;;;;;;;;;;;5.25;100.00;96703.84;5074637;28;19962;-70
2023/01/12 06:10:03;;;;;;;;;;;;;;;5.27;100.00;96699.25;5074573;28;20306;-70
2023/01/12 06:15:13;;;;;;;;;;;;;;;5.24;100.00;96691.81;5074408;28;19963;-70
2023/01/12 06:17:39;;;;;;;;;;;;;;;5.22;100.00;96699.00;5074536;28;20378;-70
2023/01/12 06:20:06;;;;;;;;;;;;;;;5.22;100.00;96696.41;5074263;28;19989;-70
2023/01/12 06:22:32;;;;;;;;;;;;;;;5.20;100.00;96693.16;5074323;28;20451;-70
2023/01/12 06:24:58;;;;;;;;;;;;;;;5.19;100.00;96689.75;5074394;28;20003;-70
2023/01/12 06:27:23;;;;;;;;;;;;;;;5.19;100.00;96688.97;5074096;28;20339;-70
2023/01/12 06:29:49;;;;;;;;;;;;;;;5.15;100.00;96687.69;5074334;28;19947;-70
2023/01/12 06:32:15;;;;;;;;;;;;;;;5.15;100.00;96682.50;5074520;28;19960;-70
2023/01/12 06:34:41;;;;;;;;;;;;;;;5.14;100.00;96671.28;5074034;28;20044;-70
2023/01/12 06:37:10;;;;;;;;;;;;;;;5.14;100.00;96662.66;5074071;28;19978;-70
2023/01/12 06:39:36;;;;;;;;;;;;;;;5.14;100.00;96662.66;5073969;28;19951;-70
2023/01/12 06:44:48;;;;;;;;;;;;;;;5.14;100.00;96658.28;5074305;28;19959;-70
2023/01/12 06:47:13;;;;;;;;;;;;;;;5.15;100.00;96657.31;5072689;28;20030;-70
2023/01/12 06:49:39;;;;;;;;;;;;;;;5.16;100.00;96652.91;5073990;28;20002;-70
2023/01/12 06:52:06;;;;;;;;;;;;;;;5.18;100.00;96663.94;5073786;28;19953;-70
2023/01/12 06:54:32;;;;;;;;;;;;;;;5.18;100.00;96656.13;5073426;28;20311;-70
2023/01/12 06:56:57;;;;;;;;;;;;;;;5.22;100.00;96653.00;5074435;28;20049;-70
2023/01/12 06:59:23;;;;;;;;;;;;;;;5.25;100.00;96650.06;5073906;28;19951;-70
2023/01/12 07:01:49;;;;;;;;;;;;;;;5.28;100.00;96644.47;5073861;28;19949;-70
2023/01/12 07:04:15;;;;;;;;;;;;;;;5.32;100.00;96651.94;5073845;28;20072;-70
2023/01/12 07:06:41;;;;;;;;;;;;;;;5.34;100.00;96642.97;5073448;28;19997;-70
2023/01/12 07:09:07;;;;;;;;;;;;;;;5.36;100.00;96642.78;5073654;28;19956;-70
2023/01/12 07:11:32;;;;;;;;;;;;;;;5.37;100.00;96639.19;5073646;28;19975;-70
2023/01/12 07:13:58;;;;;;;;;;;;;;;5.40;100.00;96647.44;5073747;28;20364;-70
2023/01/12 07:16:24;;;;;;;;;;;;;;;5.42;100.00;96652.47;5073689;28;20401;-70
2023/01/12 07:18:50;;;;;;;;;;;;;;;5.42;100.00;96649.88;5073501;28;20008;-70
2023/01/12 07:21:18;;;;;;;;;;;;;;;5.42;100.00;96645.47;5072853;28;19956;-70
2023/01/12 07:23:44;;;;;;;;;;;;;;;5.42;100.00;96642.88;5073362;28;20419;-70
2023/01/12 07:26:10;;;;;;;;;;;;;;;5.41;100.00;96643.84;5073397;28;19956;-71
2023/01/12 07:28:37;;;;;;;;;;;;;;;5.43;100.00;96628.88;5073655;28;19960;-70
2023/01/12 07:31:04;;;;;;;;;;;;;;;5.42;100.00;96622.06;5073428;28;20325;-70
2023/01/12 07:33:30;;;;;;;;;;;;;;;5.43;100.00;96618.47;5072817;28;19963;-71
2023/01/12 07:35:57;;;;;;;;;;;;;;;5.42;100.00;96616.06;5073378;28;19942;-71
2023/01/12 07:38:23;;;;;;;;;;;;;;;5.43;100.00;96618.47;5073400;28;19947;-71
2023/01/12 07:40:49;;;;;;;;;;;;;;;5.42;100.00;96605.66;5073550;28;19969;-70
2023/01/12 07:43:17;;;;;;;;;;;;;;;5.44;100.00;96614.88;5073158;28;20041;-71
2023/01/12 07:45:44;;;;;;;;;;;;;;;5.42;100.00;96616.06;5073304;28;20297;-71
2023/01/12 07:48:10;;;;;;;;;;;;;;;5.41;100.00;96630.03;5071225;28;19960;-70
2023/01/12 07:50:36;;;;;;;;;;;;;;;5.43;100.00;96628.88;5073190;28;19961;-70
2023/01/12 07:53:02;;;;;;;;;;;;;;;5.43;100.00;96635.88;5073259;28;19953;-71
2023/01/12 07:55:31;;;;;;;;;;;;;;;5.43;100.00;96628.06;5073284;28;19952;-71
2023/01/12 07:58:06;;;;;;;;;;;;;;;5.44;100.00;96629.69;5073340;28;19954;-70
2023/01/12 08:00:32;;;;;;;;;;;;;;;5.46;100.00;96618.13;5072918;28;19952;-70
2023/01/12 08:03:04;;;;;;;;;;;;;;;5.49;100.00;96609.94;5072973;28;19952;-71
2023/01/12 08:05:29;;;;;;;;;;;;;;;5.55;100.00;96615.41;5073650;28;19959;-70
2023/01/12 08:07:55;;;;;;;;;;;;;;;5.59;100.00;96622.69;5075254;28;20336;-70
2023/01/12 08:10:21;;;;;;;;;;;;;;;5.62;100.00;96624.91;5077045;28;19953;-70
2023/01/12 08:12:49;;;;;;;;;;;;;;;5.63;100.00;96616.13;5077049;28;20035;-70
2023/01/12 08:15:15;;;;;;;;;;;;;;;5.68;100.00;96629.38;5077058;28;20422;-70
2023/01/12 08:17:53;;;;;;;;;;;;;;;5.72;100.00;96626.44;5076755;28;19948;-70
2023/01/12 08:20:37;;;;;;;;;;;;;;;5.75;100.00;96626.84;5076696;28;19950;-70
2023/01/12 08:23:07;;;;;;;;;;;;;;;5.80;100.00;96628.94;5076657;28;19950;-70
2023/01/12 08:25:37;;;;;;;;;;;;;;;5.82;100.00;96630.34;5076593;28;19953;-70
2023/01/12 08:28:06;;;;;;;;;;;;;;;5.85;100.00;96640.38;5060826;28;19968;-70
2023/01/12 08:30:32;;;;;;;;;;;;;;;5.89;100.00;96653.84;5076744;28;19969;-70
2023/01/12 08:32:59;;;;;;;;;;;;;;;5.92;100.00;96637.84;5076360;28;19951;-70
2023/01/12 08:35:27;;;;;;;;;;;;;;;5.96;100.00;96639.13;5076404;28;19962;-70
2023/01/12 08:37:53;;;;;;;;;;;;;;;5.98;100.00;96646.75;5076305;28;20318;-70
2023/01/12 08:40:20;;;;;;;;;;;;;;;6.00;100.00;96647.38;5075518;28;19985;-71
2023/01/12 08:42:45;;;;;;;;;;;;;;;6.04;100.00;96648.63;5076461;28;19963;-70
2023/01/12 08:45:11;;;;;;;;;;;;;;;6.09;100.00;96651.50;5076110;28;19951;-70
2023/01/12 08:47:39;;;;;;;;;;;;;;;6.14;100.00;96649.13;5076366;28;20048;-70
2023/01/12 08:50:06;;;;;;;;;;;;;;;6.16;98.45;96638.56;5076140;28;19962;-70
2023/01/12 08:52:33;;;;;;;;;;;;;;;6.18;99.36;96639.97;5075953;28;20429;-71
2023/01/12 08:54:59;;;;;;;;;;;;;;;6.22;100.00;96638.59;5076298;28;19971;-70
2023/01/12 08:57:25;;;;;;;;;;;;;;;6.24;99.97;96636.63;5075895;28;19948;-70
2023/01/12 08:59:51;;;;;;;;;;;;;;;6.25;98.97;96625.19;5075972;28;19954;-71
2023/01/12 09:02:17;;;;;;;;;;;;;;;6.26;97.41;96628.63;5076105;28;19967;-70
2023/01/12 09:04:43;;;;;;;;;;;;;;;6.29;98.29;96630.84;5076101;28;20450;-70
2023/01/12 09:07:10;;;;;;;;;;;;;;;6.32;98.34;96633.09;5075722;28;19946;-70
2023/01/12 09:09:36;;;;;;;;;;;;;;;6.34;98.10;96635.50;5076020;28;19972;-70
2023/01/12 09:12:02;;;;;;;;;;;;;;;6.36;97.30;96625.69;5075960;28;20405;-70
2023/01/12 09:14:28;;;;;;;;;;;;;;;6.38;98.50;96639.34;5075802;28;19957;-70
2023/01/12 09:16:55;;;;;;;;;;;;;;;6.39;98.81;96631.34;5074946;28;19977;-71
2023/01/12 09:19:21;;;;;;;;;;;;;;;6.41;97.71;96633.78;5075468;28;19960;-70
2023/01/12 09:21:47;;;;;;;;;;;;;;;6.44;97.00;96633.41;5075654;28;19951;-70
2023/01/12 09:24:14;;;;;;;;;;;;;;;6.44;96.94;96639.41;5075329;28;20006;-71
2023/01/12 09:26:41;;;;;;;;;;;;;;;6.47;96.85;96644.25;5075325;28;19950;-70
2023/01/12 09:29:07;;;;;;;;;;;;;;;6.48;96.56;96651.06;5076107;28;19970;-70
2023/01/12 09:31:34;;;;;;;;;;;;;;;6.50;96.80;96664.72;5075368;28;19955;-70
2023/01/12 09:34:00;;;;;;;;;;;;;;;6.52;96.75;96661.94;5075237;28;20326;-70
2023/01/12 09:36:35;;;;;;;;;;;;;;;6.53;97.36;96668.78;5075284;28;19948;-70
2023/01/12 09:39:01;;;;;;;;;;;;;;;6.54;96.98;96659.94;5075238;28;19957;-71
2023/01/12 09:47:06;;;;;;;;;;;;;;;6.59;97.46;96675.00;5065771;28;19958;-71
2023/01/12 09:49:37;;;;;;;;;;;;;;;6.60;97.35;96672.22;5059866;28;19951;-70
2023/01/12 09:52:20;;;;;;;;;;;;;;;6.63;97.30;96664.03;5074952;28;19954;-71
2023/01/12 09:54:48;;;;;;;;;;;;;;;6.66;97.30;96658.44;5067932;28;20427;-70
2023/01/12 09:57:33;;;;;;;;;;;;;;;6.69;97.02;96647.63;5074765;28;19950;-71
2023/01/12 10:00:02;;;;;;;;;;;;;;;6.71;97.15;96642.25;5074745;28;20434;-71
2023/01/12 10:02:32;;;;;;;;;;;;;;;6.73;96.67;96626.44;5073533;28;19945;-70
2023/01/12 10:04:58;;;;;;;;;;;;;;;6.76;96.45;96636.47;5074500;28;19950;-70
2023/01/12 10:07:24;;;;;;;;;;;;;;;6.77;95.97;96623.25;5074381;28;19957;-71
2023/01/12 10:09:50;;;;;;;;;;;;;;;6.79;96.04;96623.06;5074853;28;19956;-71
2023/01/12 10:12:21;;;;;;;;;;;;;;;6.80;96.16;96630.69;5074383;28;19982;-71
2023/01/12 10:14:55;;;;;;;;;;;;;;;6.82;96.39;96620.88;5074960;28;19954;-72
2023/01/12 10:17:35;;;;;;;;;;;;;;;6.87;97.10;96615.91;5061841;28;19947;-71
2023/01/12 10:20:07;;;;;;;;;;;;;;;6.88;95.88;96612.28;5074404;28;19942;-71
2023/01/12 10:22:38;;;;;;;;;;;;;;;6.90;95.60;96605.09;5074427;28;19968;-71
2023/01/12 10:25:19;;;;;;;;;;;;;;;6.92;94.82;96597.09;5074432;28;20341;-71
2023/01/12 10:27:46;;;;;;;;;;;;;;;6.93;94.80;96588.28;5074389;28;20433;-71
2023/01/12 10:30:14;;;;;;;;;;;;;;;6.97;96.06;96596.50;5073520;28;20320;-71
2023/01/12 10:32:40;;;;;;;;;;;;;;;7.00;95.38;96596.13;5074283;28;19953;-71
2023/01/12 10:35:11;;;;;;;;;;;;;;;7.04;94.62;96595.56;5074131;28;19963;-71
2023/01/12 10:37:44;;;;;;;;;;;;;;;7.06;92.71;96579.72;5073977;28;19943;-71
2023/01/12 10:40:17;;;;;;;;;;;;;;;7.10;93.78;96594.00;5073735;28;19956;-71
2023/01/12 10:45:34;;;;;;;;;;;;;;;7.17;94.26;96600.03;5063028;28;19972;-71
2023/01/12 10:48:14;;;;;;;;;;;;;;;7.19;93.28;96590.22;5073843;28;19966;-70
2023/01/12 10:50:41;;;;;;;;;;;;;;;7.21;92.13;96571.78;5058464;28;19950;-71
2023/01/12 10:53:14;;;;;;;;;;;;;;;7.21;92.34;96580.41;5073727;28;20322;-71
2023/01/12 10:55:41;;;;;;;;;;;;;;;7.23;92.66;96564.56;5073980;28;19952;-72
2023/01/12 10:58:19;;;;;;;;;;;;;;;7.27;93.05;96565.78;5073754;28;19951;-71
2023/01/12 11:00:46;;;;;;;;;;;;;;;7.29;91.89;96556.78;5073951;28;19951;-71
2023/01/12 11:03:28;;;;;;;;;;;;;;;7.34;92.36;96560.59;5073959;28;19951;-70
2023/01/12 11:05:53;;;;;;;;;;;;;;;7.37;91.41;96558.41;5073573;28;19957;-71
2023/01/12 11:08:24;;;;;;;;;;;;;;;7.38;92.44;96552.19;5073334;28;20006;-71
2023/01/12 11:10:50;;;;;;;;;;;;;;;7.40;91.95;96565.84;5073855;28;20300;-71
2023/01/12 11:13:31;;;;;;;;;;;;;;;7.39;92.24;96561.63;5074088;28;20006;-71
2023/01/12 11:16:03;;;;;;;;;;;;;;;7.39;92.29;96560.81;5073445;28;20450;-71
2023/01/12 11:18:52;;;;;;;;;;;;;;;7.38;93.14;96567.03;5073781;28;19967;-70
2023/01/12 11:21:21;;;;;;;;;;;;;;;7.36;92.06;96566.44;5059563;28;19951;-71
2023/01/12 11:24:05;;;;;;;;;;;;;;;7.33;92.26;96554.59;5073777;28;19952;-71
2023/01/12 11:26:37;;;;;;;;;;;;;;;7.34;92.31;96558.00;5073411;28;19956;-71
2023/01/12 11:29:22;;;;;;;;;;;;;;;7.32;93.78;96566.81;5073353;28;20368;-71
2023/01/12 11:31:51;;;;;;;;;;;;;;;7.35;92.80;96556.97;5059706;28;19964;-71
2023/01/12 11:34:21;;;;;;;;;;;;;;;7.37;93.53;96568.03;5073231;28;20312;-71
2023/01/12 11:36:51;;;;;;;;;;;;;;;7.40;93.23;96568.44;5073623;28;19942;-71
2023/01/12 11:39:21;;;;;;;;;;;;;;;7.44;92.84;96566.25;5073369;28;19955;-71
2023/01/12 11:44:54;;;;;;;;;;;;;;;7.48;92.29;96550.03;5077295;28;19950;-71
2023/01/12 11:47:23;;;;;;;;;;;;;;;7.53;93.67;96557.25;5077159;28;19960;-71
2023/01/12 11:50:05;;;;;;;;;;;;;;;7.55;92.87;96544.81;5077161;28;19961;-71
2023/01/12 11:52:31;;;;;;;;;;;;;;;7.54;92.19;96538.00;5077371;28;20302;-71
2023/01/12 11:54:57;;;;;;;;;;;;;;;7.55;92.49;96530.97;5076437;28;19950;-71
2023/01/12 11:57:23;;;;;;;;;;;;;;;7.56;92.32;96530.78;5077100;28;19949;-71
2023/01/12 11:59:56;;;;;;;;;;;;;;;7.58;92.75;96538.41;5077094;28;19951;-71
2023/01/12 12:02:28;;;;;;;;;;;;;;;7.59;93.10;96530.38;5075922;28;20313;-71
2023/01/12 12:05:13;;;;;;;;;;;;;;;7.63;92.22;96525.56;5077284;28;19943;-71
2023/01/12 12:07:49;;;;;;;;;;;;;;;7.65;91.87;96513.94;5064551;28;20448;-71
2023/01/12 12:10:24;;;;;;;;;;;;;;;7.68;90.58;96510.13;5076942;28;19967;-72
2023/01/12 12:13:07;;;;;;;;;;;;;;;7.70;92.75;96518.56;5063142;28;19948;-71
2023/01/12 12:15:39;;;;;;;;;;;;;;;7.75;92.52;96510.13;5076717;28;19949;-71
2023/01/12 12:18:05;;;;;;;;;;;;;;;7.77;92.01;96501.13;5076038;28;19950;-71
2023/01/12 12:20:35;;;;;;;;;;;;;;;7.79;92.44;96508.72;5076675;28;19988;-71
2023/01/12 12:23:00;;;;;;;;;;;;;;;7.77;90.70;96497.69;5076652;28;19947;-71
2023/01/12 12:25:31;;;;;;;;;;;;;;;7.78;91.65;96507.94;5076665;28;19951;-71
2023/01/12 12:28:17;;;;;;;;;;;;;;;7.79;91.36;96495.66;5076399;28;19964;-71
2023/01/12 12:30:55;;;;;;;;;;;;;;;7.79;90.72;96493.88;5076836;28;20287;-71
2023/01/12 12:33:31;;;;;;;;;;;;;;;7.82;91.73;96513.56;5065466;28;19944;-71
2023/01/12 12:36:06;;;;;;;;;;;;;;;7.82;91.80;96497.91;5076374;28;19953;-71
2023/01/12 12:38:37;;;;;;;;;;;;;;;7.85;92.71;96489.66;5076991;28;19943;-71
2023/01/12 12:47:05;;;;;;;;;;;;;;;7.92;91.60;96488.69;5064619;28;19945;-71
2023/01/12 12:49:33;;;;;;;;;;;;;;;8.02;93.09;96509.19;5076249;28;19967;-71
2023/01/12 12:52:00;;;;;;;;;;;;;;;8.12;92.44;96495.72;5076518;28;19947;-71
2023/01/12 12:54:27;;;;;;;;;;;;;;;8.17;92.31;96493.31;5075909;28;19960;-71
2023/01/12 12:56:53;;;;;;;;;;;;;;;8.23;92.36;96492.50;5075955;28;19959;-71
2023/01/12 12:59:28;;;;;;;;;;;;;;;8.29;91.86;96491.72;5076412;28;19956;-71
2023/01/12 13:01:54;;;;;;;;;;;;;;;8.37;91.73;96485.44;5075759;28;19954;-71
2023/01/12 13:04:40;;;;;;;;;;;;;;;8.45;91.23;96476.63;5075988;28;19953;-71
2023/01/12 13:07:06;;;;;;;;;;;;;;;8.43;91.58;96489.91;5075794;28;19949;-71
2023/01/12 13:09:33;;;;;;;;;;;;;;;8.45;92.96;96489.69;5075623;28;20326;-71
2023/01/12 13:11:59;;;;;;;;;;;;;;;8.42;93.75;96497.94;5075814;28;19953;-71
2023/01/12 13:14:25;;;;;;;;;;;;;;;8.40;93.22;96497.28;5075947;28;20298;-72
2023/01/12 13:16:52;;;;;;;;;;;;;;;8.37;93.05;96484.66;5076131;28;19949;-71
2023/01/12 13:19:38;;;;;;;;;;;;;;;8.36;93.20;96488.25;5075787;28;19949;-71
2023/01/12 13:22:22;;;;;;;;;;;;;;;8.37;93.25;96472.38;5074828;28;19964;-71
2023/01/12 13:24:48;;;;;;;;;;;;;;;8.40;92.07;96460.72;5075777;28;20406;-71
2023/01/12 13:27:33;;;;;;;;;;;;;;;8.43;92.84;96473.41;5075412;28;19997;-71
2023/01/12 13:30:17;;;;;;;;;;;;;;;8.42;92.48;96466.56;5074527;28;19971;-71
2023/01/12 13:32:49;;;;;;;;;;;;;;;8.40;91.74;96458.09;5075826;28;19948;-71
2023/01/12 13:35:26;;;;;;;;;;;;;;;8.34;92.79;96460.53;5075263;28;19962;-71
2023/01/12 13:38:02;;;;;;;;;;;;;;;8.30;93.54;96469.78;5075300;28;19950;-71
2023/01/12 13:40:28;;;;;;;;;;;;;;;8.26;93.56;96470.41;5074881;28;19975;-71
2023/01/12 13:43:14;;;;;;;;;;;;;;;8.20;93.19;96463.38;5075100;28;19955;-72
2023/01/12 13:45:49;;;;;;;;;;;;;;;8.12;93.79;96474.81;5075387;28;19941;-72